Time;durP1;ratioP1;P1;durP2;ratioP2;P2;SDS_P1;SDS_P2;PMS_P1;PMS_P2;Temp;Humidity;BMP_temperature;BMP_pressure;BME280_temperature;BME280_humidity;BME280_pressure;Samples;Min_cycle;Max_cycle;Signal;HPM_P1;HPM_P2
2022/01/13 00:02:12;;;;;;;40.80;26.60;;;;;;;1.28;77.47;102242.05;110300;1258;21982;-79
2022/01/13 00:05:04;;;;;;;41.90;28.40;;;;;;;1.29;77.51;102247.72;110564;1255;22035;-80
2022/01/13 00:07:55;;;;;;;40.00;27.00;;;;;;;1.32;77.58;102252.11;109971;1261;23703;-79
2022/01/13 00:11:25;;;;;;;39.90;25.30;;;;;;;1.32;77.41;102258.19;110388;1258;22051;-79
2022/01/13 00:14:24;;;;;;;37.30;24.90;;;;;;;1.31;77.38;102264.98;110172;1261;23076;-81
2022/01/13 00:17:55;;;;;;;35.30;25.60;;;;;;;1.32;77.37;102271.03;110214;1261;22160;-80
2022/01/13 00:21:14;;;;;;;40.20;25.90;;;;;;;1.32;77.37;102268.59;109040;1275;24567;-81
2022/01/13 00:24:13;;;;;;;34.90;24.40;;;;;;;1.34;77.22;102276.33;108819;1275;21992;-80
2022/01/13 00:27:09;;;;;;;35.20;24.80;;;;;;;1.35;77.03;102275.05;109156;1272;23629;-81
2022/01/13 00:30:04;;;;;;;37.20;23.90;;;;;;;1.36;77.05;102281.29;109184;1272;22016;-79
2022/01/13 00:32:52;;;;;;;34.70;24.20;;;;;;;1.36;77.00;102289.09;108826;1272;21998;-81
2022/01/13 00:35:40;;;;;;;33.10;23.40;;;;;;;1.36;76.89;102299.68;109215;1272;22495;-79
2022/01/13 00:38:37;;;;;;;34.00;23.30;;;;;;;1.35;76.84;102295.91;109068;1267;21951;-79
2022/01/13 00:41:37;;;;;;;;;;;;;;;;;;;;;
2022/01/13 00:44:19;;;;;;;37.50;24.60;;;;;;;1.38;76.97;102227.92;109546;1264;21993;-79
2022/01/13 00:47:11;;;;;;;34.30;23.80;;;;;;;1.40;76.87;102226.42;109360;1266;23689;-80
2022/01/13 00:50:07;;;;;;;37.20;24.30;;;;;;;1.42;76.76;102229.84;109549;1264;21975;-79
2022/01/13 00:52:48;;;;;;;31.50;21.70;;;;;;;1.43;76.66;102235.20;109421;1267;22434;-79
2022/01/13 00:55:42;;;;;;;;;;;;;;;;;;;;;
2022/01/13 00:58:46;;;;;;;33.00;23.00;;;;;;;1.41;76.67;102227.95;109558;1265;22000;-80
2022/01/13 01:01:38;;;;;;;32.00;24.40;;;;;;;1.41;76.69;102223.59;109558;1264;21981;-79
2022/01/13 01:04:17;;;;;;;29.40;22.60;;;;;;;1.42;76.55;102218.17;109402;1267;23036;-80
2022/01/13 01:06:57;;;;;;;27.20;21.20;;;;;;;1.43;76.53;102212.95;109348;1265;21998;-79
2022/01/13 01:09:40;;;;;;;31.00;22.60;;;;;;;1.42;76.39;102209.85;109738;1264;21987;-80
2022/01/13 01:12:15;;;;;;;36.40;23.70;;;;;;;1.43;76.35;102207.38;110334;1259;22111;-79
2022/01/13 01:15:20;;;;;;;31.10;21.90;;;;;;;1.42;76.35;102204.30;111084;1250;23717;-80
2022/01/13 01:18:01;;;;;;;31.80;23.20;;;;;;;1.41;76.25;102208.86;110769;1255;21994;-80
2022/01/13 01:24:25;;;;;;;;;;;;;;;;;;;;;
2022/01/13 01:27:25;;;;;;;29.60;22.40;;;;;;;1.35;76.22;102242.80;108920;1273;22047;-80
2022/01/13 01:30:29;;;;;;;29.60;24.30;;;;;;;1.34;76.18;102235.36;109022;1270;22029;-78
2022/01/13 01:33:18;;;;;;;31.50;23.30;;;;;;;1.35;76.28;102229.60;108780;1273;21990;-79
2022/01/13 01:36:04;;;;;;;33.90;26.10;;;;;;;1.36;76.21;102231.63;108735;1269;21997;-78
2022/01/13 01:39:11;;;;;;;35.80;26.30;;;;;;;1.36;76.14;102236.65;109164;1266;21991;-79
2022/01/13 01:41:58;;;;;;;34.40;26.80;;;;;;;1.36;76.18;102237.36;108764;1273;23755;-79
2022/01/13 01:44:44;;;;;;;37.70;26.80;;;;;;;1.37;76.22;102234.89;108838;1271;22110;-80
2022/01/13 01:47:42;;;;;;;35.20;28.10;;;;;;;1.38;76.23;102231.02;108898;1270;23072;-78
2022/01/13 01:50:24;;;;;;;33.80;27.60;;;;;;;1.38;76.20;102229.45;108884;1273;21958;-79
2022/01/13 01:53:18;;;;;;;35.80;29.20;;;;;;;1.37;76.19;102226.58;108792;1273;22045;-79
2022/01/13 01:56:11;;;;;;;37.70;30.10;;;;;;;1.35;76.17;102222.63;109143;1273;22023;-80
2022/01/13 01:59:12;;;;;;;;;;;;;;;;;;;;;
2022/01/13 02:02:15;;;;;;;38.60;31.70;;;;;;;1.38;76.18;102222.70;109463;1263;23015;-80
2022/01/13 02:05:00;;;;;;;;;;;;;;;;;;;;;
2022/01/13 02:07:55;;;;;;;42.30;32.70;;;;;;;1.39;76.19;102200.97;110567;1258;23573;-79
2022/01/13 02:10:38;;;;;;;43.60;32.50;;;;;;;1.40;76.25;102203.85;110724;1257;23607;-79
2022/01/13 02:13:36;;;;;;;41.10;33.20;;;;;;;1.42;76.17;102208.64;109923;1263;22000;-80
2022/01/13 02:16:49;;;;;;;42.00;33.90;;;;;;;1.41;76.22;102209.90;109993;1263;22969;-79
2022/01/13 02:19:45;;;;;;;47.60;34.90;;;;;;;1.41;76.29;102212.84;110087;1258;21970;-79
2022/01/13 02:22:25;;;;;;;44.80;36.50;;;;;;;1.41;76.26;102208.87;109906;1261;23203;-80
2022/01/13 02:25:12;;;;;;;49.60;37.70;;;;;;;1.42;76.34;102199.09;109921;1261;22340;-81
2022/01/13 02:28:00;;;;;;;;;;;;;;;;;;;;;
2022/01/13 02:30:54;;;;;;;46.90;36.50;;;;;;;1.46;76.35;102206.22;109768;1258;23638;-81
2022/01/13 02:34:00;;;;;;;46.80;37.40;;;;;;;1.48;76.34;102211.88;109773;1263;21993;-81
2022/01/13 02:36:48;;;;;;;49.20;40.60;;;;;;;1.47;76.25;102210.88;109885;1262;23804;-80
2022/01/13 02:39:36;;;;;;;48.30;37.90;;;;;;;1.48;76.29;102210.48;110215;1261;22870;-79
2022/01/13 02:42:25;;;;;;;52.30;39.40;;;;;;;1.47;76.25;102212.27;110623;1257;22775;-78
2022/01/13 02:45:20;;;;;;;49.50;39.60;;;;;;;1.47;76.38;102214.36;110595;1258;22017;-79
2022/01/13 02:51:02;;;;;;;47.20;38.70;;;;;;;1.45;76.43;102200.39;110517;1258;23035;-80
2022/01/13 02:54:05;;;;;;;51.80;41.00;;;;;;;1.44;76.56;102193.81;110738;1257;23040;-80
2022/01/13 02:56:57;;;;;;;46.60;39.90;;;;;;;1.44;76.64;102179.59;110189;1258;22035;-79
2022/01/13 02:59:57;;;;;;;50.20;40.00;;;;;;;1.41;76.61;102161.29;109529;1267;21954;-79
2022/01/13 03:02:35;;;;;;;48.70;37.50;;;;;;;1.40;76.67;102153.52;109591;1265;23690;-79
2022/01/13 03:05:13;;;;;;;47.10;37.10;;;;;;;1.40;76.71;102153.50;109578;1264;22017;-79
2022/01/13 03:07:57;;;;;;;41.70;34.90;;;;;;;1.39;76.72;102141.42;109382;1264;22308;-79
2022/01/13 03:10:35;;;;;;;43.10;33.80;;;;;;;1.36;76.69;102139.45;109254;1267;22003;-79
2022/01/13 03:13:18;;;;;;;38.70;33.10;;;;;;;1.33;76.76;102145.98;109150;1270;23719;-80
2022/01/13 03:16:10;;;;;;;42.80;35.10;;;;;;;1.34;76.86;102149.08;109130;1269;21991;-80
2022/01/13 03:18:55;;;;;;;45.40;36.70;;;;;;;1.34;76.95;102154.45;109393;1266;22788;-80
2022/01/13 03:21:52;;;;;;;42.50;34.20;;;;;;;1.33;76.85;102150.84;109642;1263;21988;-80
2022/01/13 03:24:51;;;;;;;45.10;34.50;;;;;;;1.32;76.83;102150.05;109424;1269;21986;-79
2022/01/13 03:27:52;;;;;;;48.30;38.70;;;;;;;1.30;76.84;102151.50;109248;1269;22001;-80
2022/01/13 03:30:30;;;;;;;48.50;39.00;;;;;;;1.31;76.91;102159.80;109242;1267;22437;-80
2022/01/13 03:33:11;;;;;;;48.00;37.40;;;;;;;1.32;76.98;102166.36;109129;1266;23568;-79
2022/01/13 03:35:54;;;;;;;41.20;36.10;;;;;;;1.33;77.01;102172.20;108662;1272;22093;-81
2022/01/13 03:38:36;;;;;;;42.20;36.10;;;;;;;1.33;76.94;102164.77;108819;1269;21986;-80
2022/01/13 03:41:15;;;;;;;43.60;36.40;;;;;;;1.32;76.94;102164.45;109034;1272;23655;-80
2022/01/13 03:44:05;;;;;;;45.10;36.10;;;;;;;1.30;76.91;102166.95;108870;1275;23722;-80
2022/01/13 03:46:40;;;;;;;40.20;35.80;;;;;;;1.30;76.98;102169.73;108552;1279;22005;-80
2022/01/13 03:49:15;;;;;;;38.50;33.40;;;;;;;1.29;76.94;102162.48;108731;1275;23269;-79
2022/01/13 03:52:06;;;;;;;40.40;33.80;;;;;;;1.30;76.99;102164.87;108822;1273;23758;-79
2022/01/13 03:56:00;;;;;;;39.30;32.90;;;;;;;1.33;77.19;102155.38;108894;1270;21995;-81
2022/01/13 03:59:49;;;;;;;40.60;30.80;;;;;;;1.33;77.10;102150.66;108946;1273;24331;-81
2022/01/13 04:02:39;;;;;;;40.70;31.40;;;;;;;1.31;77.05;102144.89;109079;1270;22085;-80
2022/01/13 04:05:27;;;;;;;39.50;30.00;;;;;;;1.29;77.06;102130.37;109372;1264;22082;-82
2022/01/13 04:08:15;;;;;;;36.40;29.60;;;;;;;1.29;77.09;102122.75;109641;1259;22764;-81
2022/01/13 04:11:40;;;;;;;;;;;;;;;;;;;;;
2022/01/13 04:14:27;;;;;;;35.00;28.90;;;;;;;1.26;76.95;102115.76;110295;1260;21953;-81
2022/01/13 04:17:26;;;;;;;;;;;;;;;;;;;;;
2022/01/13 04:20:19;;;;;;;45.10;30.50;;;;;;;1.25;77.05;102101.92;110552;1257;22007;-80
2022/01/13 04:23:13;;;;;;;38.00;31.10;;;;;;;1.25;76.99;102108.69;110400;1258;21965;-80
2022/01/13 04:26:32;;;;;;;40.00;32.60;;;;;;;1.23;77.08;102103.01;109204;1271;21999;-81
2022/01/13 04:29:26;;;;;;;41.70;32.10;;;;;;;1.24;77.10;102100.21;109392;1267;22034;-80
2022/01/13 04:32:05;;;;;;;42.40;33.30;;;;;;;1.26;77.28;102099.61;109462;1267;23023;-79
2022/01/13 04:34:45;;;;;;;38.60;33.70;;;;;;;1.28;77.25;102093.42;108969;1269;23592;-78
2022/01/13 04:37:26;;;;;;;42.60;36.00;;;;;;;1.27;77.10;102081.52;109325;1269;22087;-79
2022/01/13 04:40:42;;;;;;;38.30;33.90;;;;;;;1.25;77.06;102081.95;109344;1270;22534;-80
2022/01/13 04:43:19;;;;;;;39.60;34.60;;;;;;;1.28;77.32;102084.94;109207;1267;21981;-79
2022/01/13 04:46:09;;;;;;;43.30;34.80;;;;;;;1.29;77.20;102088.36;109541;1265;22038;-78
2022/01/13 04:48:56;;;;;;;39.50;33.80;;;;;;;1.29;77.13;102090.98;109277;1266;21984;-78
2022/01/13 04:51:43;;;;;;;39.50;33.00;;;;;;;1.28;77.12;102086.69;109369;1266;21997;-78
2022/01/13 04:54:24;;;;;;;42.50;36.20;;;;;;;1.28;77.19;102082.87;109698;1261;22500;-78
2022/01/13 04:57:15;;;;;;;40.40;35.10;;;;;;;1.31;77.31;102078.21;110173;1260;22977;-79
2022/01/13 04:59:56;;;;;;;42.70;37.50;;;;;;;1.30;77.20;102078.76;110242;1260;22924;-78
2022/01/13 05:02:40;;;;;;;43.10;36.00;;;;;;;1.30;77.28;102074.26;109772;1261;22043;-79
2022/01/13 05:05:21;;;;;;;45.20;34.90;;;;;;;1.28;77.18;102074.19;109164;1264;23084;-79
2022/01/13 05:08:19;;;;;;;42.10;37.70;;;;;;;1.28;77.26;102070.72;109083;1265;21994;-79
2022/01/13 05:11:28;;;;;;;45.10;37.90;;;;;;;1.29;77.33;102068.74;109153;1267;21988;-80
2022/01/13 05:14:34;;;;;;;45.70;36.10;;;;;;;1.32;77.57;102072.96;109513;1267;23083;-80
2022/01/13 05:20:45;;;;;;;42.30;37.10;;;;;;;1.36;77.40;102074.16;109214;1264;22908;-79
2022/01/13 05:23:38;;;;;;;43.70;36.30;;;;;;;1.32;77.33;102064.45;109670;1261;22192;-80
2022/01/13 05:26:28;;;;;;;43.10;36.30;;;;;;;1.28;77.40;102063.95;109549;1261;21979;-80
2022/01/13 05:29:22;;;;;;;47.50;36.50;;;;;;;1.29;77.53;102064.59;110000;1261;22787;-80
2022/01/13 05:32:05;;;;;;;43.20;38.40;;;;;;;1.32;77.61;102063.42;109365;1267;22020;-80
2022/01/13 05:34:58;;;;;;;;;;;;;;;;;;;;;
2022/01/13 05:37:32;;;;;;;48.90;38.70;;;;;;;1.34;77.54;102058.98;109371;1267;21995;-79
2022/01/13 05:40:14;;;;;;;48.20;39.80;;;;;;;1.34;77.50;102049.94;108950;1273;21990;-80
2022/01/13 05:43:04;;;;;;;52.40;40.80;;;;;;;1.35;77.60;102049.20;109141;1269;22000;-80
2022/01/13 05:45:54;;;;;;;48.40;39.70;;;;;;;1.36;77.66;102044.33;109125;1269;21993;-80
2022/01/13 05:48:50;;;;;;;51.40;39.30;;;;;;;1.36;77.70;102050.58;109294;1270;22345;-79
2022/01/13 05:51:36;;;;;;;58.30;44.90;;;;;;;1.38;77.79;102052.92;109393;1270;21998;-79
2022/01/13 05:54:19;;;;;;;55.00;43.70;;;;;;;1.40;77.85;102050.23;109300;1273;22625;-81
2022/01/13 05:57:00;;;;;;;57.30;46.20;;;;;;;1.43;77.90;102048.39;109321;1272;22026;-81
2022/01/13 05:59:56;;;;;;;59.60;44.20;;;;;;;1.44;77.95;102052.13;109652;1267;24403;-81
2022/01/13 06:02:53;;;;;;;51.30;37.80;;;;;;;1.47;78.04;102056.00;109297;1270;21953;-81
2022/01/13 06:05:35;;;;;;;54.70;42.10;;;;;;;1.50;78.12;102062.80;109242;1272;23079;-81
2022/01/13 06:08:49;;;;;;;56.40;43.50;;;;;;;1.53;78.01;102066.70;108778;1278;22503;-82
2022/01/13 06:15:14;;;;;;;58.30;42.10;;;;;;;1.51;78.14;102061.54;108664;1279;23062;-81
2022/01/13 06:18:12;;;;;;;62.20;43.50;;;;;;;1.49;78.17;102065.98;108590;1281;22020;-82
2022/01/13 06:21:26;;;;;;;61.70;45.50;;;;;;;1.48;78.14;102071.41;108772;1275;22789;-81
2022/01/13 06:24:36;;;;;;;63.60;48.10;;;;;;;1.48;78.27;102066.17;108584;1281;22025;-80
2022/01/13 06:27:12;;;;;;;63.60;46.30;;;;;;;1.52;78.39;102072.44;108673;1275;23651;-80
2022/01/13 06:29:54;;;;;;;58.50;44.20;;;;;;;1.54;78.47;102073.75;108657;1275;22032;-81
2022/01/13 06:32:38;;;;;;;;;;;;;;;;;;;;;
2022/01/13 06:35:25;;;;;;;86.50;59.60;;;;;;;1.56;78.64;102051.59;108964;1275;22315;-82
2022/01/13 06:38:30;;;;;;;66.10;47.50;;;;;;;1.59;78.62;102046.80;109118;1275;22048;-83
2022/01/13 06:42:02;;;;;;;73.40;57.50;;;;;;;1.59;78.80;102038.27;109182;1272;22136;-82
2022/01/13 06:45:47;;;;;;;;;;;;;;;;;;;;;
2022/01/13 06:48:52;;;;;;;88.20;70.70;;;;;;;1.57;78.88;102018.36;108540;1281;23085;-83
2022/01/13 06:52:13;;;;;;;73.80;55.20;;;;;;;1.57;79.02;102005.71;108643;1278;21965;-81
2022/01/13 06:55:03;;;;;;;60.90;48.30;;;;;;;1.57;78.98;101988.73;108756;1278;21978;-83
2022/01/13 06:58:18;;;;;;;;;;;;;;;;;;;;;
2022/01/13 07:01:22;;;;;;;56.30;43.10;;;;;;;1.61;79.33;101987.99;108708;1281;22408;-83
2022/01/13 07:04:29;;;;;;;122.30;82.60;;;;;;;1.63;79.43;101980.24;108723;1280;22006;-83
2022/01/13 07:07:45;;;;;;;;;;;;;;;;;;;;;
2022/01/13 07:10:45;;;;;;;60.10;44.80;;;;;;;1.69;79.66;101996.67;109293;1270;23593;-82
2022/01/13 07:13:39;;;;;;;52.20;44.80;;;;;;;1.73;79.59;101992.81;109417;1270;22132;-81
2022/01/13 07:16:34;;;;;;;53.90;42.60;;;;;;;1.78;79.75;101996.43;109142;1270;23538;-79
2022/01/13 07:19:57;;;;;;;65.30;47.80;;;;;;;1.81;79.91;101991.41;109110;1273;21997;-82
2022/01/13 07:22:52;;;;;;;63.70;46.10;;;;;;;1.86;80.02;101983.70;109715;1264;21999;-81
2022/01/13 07:25:40;;;;;;;71.00;48.00;;;;;;;1.91;80.11;101977.04;110340;1260;23592;-84
2022/01/13 07:28:12;;;;;;;61.10;47.60;;;;;;;1.95;80.05;101971.98;110465;1258;23566;-81
2022/01/13 07:31:49;;;;;;;63.80;47.60;;;;;;;1.98;80.05;101981.57;110601;1257;21882;-82
2022/01/13 07:35:16;;;;;;;65.80;47.70;;;;;;;2.04;80.28;101987.92;110690;1258;22034;-82
2022/01/13 07:38:33;;;;;;;61.30;46.50;;;;;;;2.09;80.22;101976.73;110482;1257;21971;-81
2022/01/13 07:41:30;;;;;;;;;;;;;;;;;;;;;
2022/01/13 07:44:47;;;;;;;69.50;47.10;;;;;;;2.14;80.42;101981.36;110761;1257;21939;-79
2022/01/13 07:48:09;;;;;;;;;;;;;;;;;;;;;
2022/01/13 07:51:41;;;;;;;;;;;;;;;;;;;;;
2022/01/13 07:55:00;;;;;;;70.50;49.20;;;;;;;2.27;80.23;101955.35;110663;1254;22071;-80
2022/01/13 07:58:02;;;;;;;74.90;51.20;;;;;;;2.34;80.36;101952.38;110252;1261;23256;-80
2022/01/13 08:00:55;;;;;;;;;;;;;;;;;;;;;
2022/01/13 08:04:49;;;;;;;62.50;45.70;;;;;;;2.46;80.21;101986.25;110186;1261;21967;-79
2022/01/13 08:07:52;;;;;;;69.50;47.40;;;;;;;2.49;80.14;101992.72;110175;1260;21988;-80
2022/01/13 08:10:52;;;;;;;69.30;49.30;;;;;;;2.52;80.06;102002.79;109515;1267;21994;-80
2022/01/13 08:14:01;;;;;;;69.10;49.30;;;;;;;2.54;79.81;102005.48;109482;1267;22008;-80
2022/01/13 08:17:00;;;;;;;65.50;48.40;;;;;;;2.56;79.88;102003.29;108968;1273;22020;-79
2022/01/13 08:20:05;;;;;;;;;;;;;;;;;;;;;
2022/01/13 08:23:13;;;;;;;62.10;47.30;;;;;;;2.59;79.74;101999.15;108921;1273;22052;-79
2022/01/13 08:26:15;;;;;;;63.00;44.30;;;;;;;2.63;79.74;101995.15;108587;1280;22008;-79
2022/01/13 08:29:00;;;;;;;59.00;43.00;;;;;;;2.65;79.76;101995.75;108501;1280;21967;-79
2022/01/13 08:31:40;;;;;;;63.90;44.70;;;;;;;2.67;79.74;101998.57;108503;1281;22022;-80
2022/01/13 08:34:46;;;;;;;58.00;44.10;;;;;;;2.71;79.77;101991.45;108706;1272;23725;-80
2022/01/13 08:37:32;;;;;;;;;;;;;;;;;;;;;
2022/01/13 08:40:45;;;;;;;53.20;39.60;;;;;;;2.76;79.84;101985.40;108723;1276;24299;-80
2022/01/13 08:43:53;;;;;;;;;;;;;;;;;;;;;
2022/01/13 08:50:47;;;;;;;54.00;42.70;;;;;;;2.88;79.77;101982.57;110523;1260;22001;-80
2022/01/13 08:54:07;;;;;;;59.40;44.00;;;;;;;2.88;79.60;101977.17;110430;1257;21973;-82
2022/01/13 08:57:35;;;;;;;57.20;45.70;;;;;;;2.88;79.52;101983.59;110784;1257;21983;-80
2022/01/13 09:00:42;;;;;;;;;;;;;;;;;;;;;
2022/01/13 09:03:56;;;;;;;59.10;43.80;;;;;;;2.94;79.51;101970.11;110664;1258;22745;-80
2022/01/13 09:06:43;;;;;;;58.40;45.10;;;;;;;2.95;79.47;101967.91;110587;1260;21969;-80
2022/01/13 09:13:29;;;;;;;60.80;44.60;;;;;;;3.00;79.62;101960.71;110090;1264;21985;-81
2022/01/13 09:16:57;;;;;;;56.90;41.40;;;;;;;3.03;79.51;101962.27;110157;1263;22066;-83
2022/01/13 09:20:10;;;;;;;53.10;41.30;;;;;;;3.03;79.38;101958.30;110124;1263;22488;-84
2022/01/13 09:23:10;;;;;;;60.20;42.90;;;;;;;3.04;79.29;101963.47;109494;1270;22000;-83
2022/01/13 09:26:27;;;;;;;55.50;42.10;;;;;;;3.02;79.06;101969.50;109389;1273;22000;-85
2022/01/13 09:29:55;;;;;;;61.00;44.60;;;;;;;2.99;79.03;101966.51;109650;1267;22167;-84
2022/01/13 09:32:55;;;;;;;59.90;42.70;;;;;;;2.93;78.99;101966.81;109716;1273;21992;-86
2022/01/13 09:36:51;;;;;;;;;;;;;;;;;;;;;
2022/01/13 09:40:09;;;;;;;;;;;;;;;;;;;;;
2022/01/13 09:43:05;;;;;;;61.10;43.90;;;;;;;2.90;79.27;101960.52;108800;1283;22219;-83
2022/01/13 09:46:27;;;;;;;;;;;;;;;;;;;;;
2022/01/13 09:49:24;;;;;;;;;;;;;;;;;;;;;
2022/01/13 09:53:17;;;;;;;;;;;;;;;;;;;;;
2022/01/13 10:00:04;;;;;;;46.70;40.40;;;;;;;3.06;79.62;101966.17;108992;1279;21930;-85
2022/01/13 10:03:50;;;;;;;50.10;42.10;;;;;;;3.10;79.56;101965.08;108997;1279;22062;-85
2022/01/13 10:06:52;;;;;;;;;;;;;;;;;;;;;
2022/01/13 10:10:18;;;;;;;55.30;42.40;;;;;;;3.13;79.42;101963.51;108682;1282;22454;-84
2022/01/13 10:13:52;;;;;;;;;;;;;;;3.12;79.35;101943.58;108480;1283;23088;-83
2022/01/13 10:16:32;;;;;;;57.50;41.50;;;;;;;3.03;79.50;101930.59;108832;1277;22002;-84
2022/01/13 10:19:57;;;;;;;;;;;;;;;;;;;;;
2022/01/13 10:22:58;;;;;;;52.50;40.90;;;;;;;3.04;79.47;101919.59;108916;1279;22376;-84
2022/01/13 10:26:16;;;;;;;49.00;39.30;;;;;;;3.13;79.43;101912.19;107994;1288;544499;-84
2022/01/13 10:29:00;;;;;;;49.90;39.30;;;;;;;3.11;79.28;101914.73;111168;1250;22056;-83
2022/01/13 10:31:51;;;;;;;50.40;36.30;;;;;;;3.11;79.31;101901.82;111147;1251;22535;-82
2022/01/13 10:34:30;;;;;;;55.00;42.70;;;;;;;3.10;79.34;101898.05;110973;1254;21983;-83
2022/01/13 10:37:12;;;;;;;51.50;41.20;;;;;;;3.10;79.27;101901.01;110626;1256;21951;-83
2022/01/13 10:40:03;;;;;;;62.60;44.30;;;;;;;3.09;79.23;101899.68;110379;1257;400899;-82
2022/01/13 10:45:59;;;;;;;61.20;43.80;;;;;;;3.12;79.54;101896.89;109598;1270;23079;-84
2022/01/13 10:48:36;;;;;;;85.40;61.60;;;;;;;3.18;79.58;101892.04;109519;1271;23238;-84
2022/01/13 10:51:11;;;;;;;70.10;48.50;;;;;;;3.24;79.70;101882.67;109289;1270;21994;-82
2022/01/13 10:53:51;;;;;;;78.10;53.80;;;;;;;3.26;79.36;101888.29;108941;1270;22008;-81
2022/01/13 10:56:26;;;;;;;71.60;50.90;;;;;;;3.25;79.17;101886.63;108882;1273;22126;-83
2022/01/13 10:59:01;;;;;;;66.50;49.10;;;;;;;3.23;79.05;101879.08;108965;1271;22769;-83
2022/01/13 11:01:35;;;;;;;68.70;50.10;;;;;;;3.18;78.94;101874.27;109052;1270;22033;-82
2022/01/13 11:04:22;;;;;;;70.40;48.30;;;;;;;3.15;78.86;101871.52;109560;1260;22005;-84
2022/01/13 11:07:40;;;;;;;;;;;;;;;;;;;;;
2022/01/13 11:10:27;;;;;;;55.60;41.00;;;;;;;3.06;78.90;101869.52;109667;1267;22057;-81
2022/01/13 11:13:08;;;;;;;57.90;41.80;;;;;;;3.05;79.02;101867.33;109651;1267;22001;-82
2022/01/13 11:15:45;;;;;;;51.80;40.50;;;;;;;3.04;78.92;101868.25;109638;1267;23693;-83
2022/01/13 11:18:22;;;;;;;54.60;40.90;;;;;;;3.04;78.97;101861.63;109368;1270;23052;-82
2022/01/13 11:21:01;;;;;;;51.50;39.60;;;;;;;3.03;78.98;101859.39;109579;1267;22012;-82
2022/01/13 11:23:34;;;;;;;48.30;37.00;;;;;;;3.02;78.91;101862.79;109653;1269;22144;-84
2022/01/13 11:26:13;;;;;;;63.90;46.40;;;;;;;3.01;78.87;101862.17;109526;1264;22001;-82
2022/01/13 11:28:50;;;;;;;60.10;43.10;;;;;;;3.00;78.91;101857.35;109974;1263;21997;-82
2022/01/13 11:31:20;;;;;;;51.90;39.00;;;;;;;3.00;78.95;101857.52;109827;1263;22750;-83
2022/01/13 11:34:03;;;;;;;50.50;37.40;;;;;;;3.00;78.94;101855.61;109994;1257;22111;-82
2022/01/13 11:36:34;;;;;;;50.10;37.50;;;;;;;2.99;78.99;101852.00;110494;1254;23580;-83
2022/01/13 11:39:07;;;;;;;50.40;37.40;;;;;;;2.98;78.96;101849.79;111108;1254;21988;-83
2022/01/13 11:42:04;;;;;;;55.00;38.40;;;;;;;2.98;79.04;101847.54;110937;1251;22120;-84
2022/01/13 11:44:37;;;;;;;52.00;36.30;;;;;;;2.95;79.13;101840.90;111583;1251;21967;-82
2022/01/13 11:47:25;;;;;;;46.40;37.80;;;;;;;2.93;78.95;101837.52;111232;1251;22060;-83
2022/01/13 11:50:31;;;;;;;45.70;35.20;;;;;;;2.91;79.05;101836.95;111222;1254;23587;-83
2022/01/13 11:53:17;;;;;;;45.80;36.30;;;;;;;2.88;79.19;101833.63;110869;1257;21979;-83
2022/01/13 11:55:56;;;;;;;48.00;35.50;;;;;;;2.87;79.21;101825.30;110459;1257;23600;-83
2022/01/13 11:58:47;;;;;;;48.90;37.20;;;;;;;2.88;79.30;101821.60;110708;1257;22737;-83
2022/01/13 12:01:24;;;;;;;53.60;36.50;;;;;;;2.91;79.34;101814.49;110599;1257;22009;-83
2022/01/13 12:04:04;;;;;;;53.30;39.70;;;;;;;2.94;79.37;101811.05;111150;1257;21931;-83
2022/01/13 12:06:49;;;;;;;46.10;35.80;;;;;;;2.95;79.33;101811.46;110843;1257;22045;-83
2022/01/13 12:09:22;;;;;;;46.80;36.10;;;;;;;2.96;79.28;101807.77;110674;1254;21980;-82
2022/01/13 12:11:55;;;;;;;52.20;37.30;;;;;;;2.97;79.21;101801.46;111201;1250;23862;-82
2022/01/13 12:14:29;;;;;;;46.20;36.60;;;;;;;2.96;79.16;101798.36;111196;1254;22054;-83
2022/01/13 12:17:26;;;;;;;49.40;35.20;;;;;;;2.96;79.19;101799.27;111394;1251;21966;-84
2022/01/13 12:20:03;;;;;;;46.80;36.40;;;;;;;2.94;79.14;101789.29;111263;1251;22038;-83
2022/01/13 12:22:45;;;;;;;49.10;37.70;;;;;;;2.93;79.20;101787.41;111053;1251;22063;-83
2022/01/13 12:25:20;;;;;;;48.20;37.20;;;;;;;2.92;79.21;101791.64;111168;1251;21949;-83
2022/01/13 12:27:52;;;;;;;43.60;34.30;;;;;;;2.93;79.25;101788.63;110902;1251;23678;-83
2022/01/13 12:30:29;;;;;;;47.30;36.60;;;;;;;2.92;79.31;101784.32;110970;1251;21974;-84
2022/01/13 12:33:06;;;;;;;49.10;37.90;;;;;;;2.92;79.45;101784.16;111322;1251;22123;-84
2022/01/13 12:35:48;;;;;;;47.80;36.20;;;;;;;2.92;79.48;101780.67;111030;1250;23580;-85
2022/01/13 12:38:23;;;;;;;49.30;39.10;;;;;;;2.94;79.45;101780.59;111208;1251;21988;-82
2022/01/13 12:41:03;;;;;;;55.00;38.50;;;;;;;2.96;79.53;101784.12;111110;1251;22979;-83
2022/01/13 12:46:17;;;;;;;50.60;39.50;;;;;;;2.99;79.54;101784.82;111022;1251;22221;-83
2022/01/13 12:48:50;;;;;;;47.10;37.00;;;;;;;3.01;79.50;101776.02;111010;1249;21964;-84
2022/01/13 12:51:27;;;;;;;50.00;39.70;;;;;;;3.02;79.41;101770.55;110975;1251;21985;-83
2022/01/13 12:53:57;;;;;;;45.70;37.40;;;;;;;3.01;79.51;101767.46;110747;1254;21967;-82
2022/01/13 12:56:34;;;;;;;51.60;37.20;;;;;;;3.00;79.42;101771.20;110351;1259;22701;-82
2022/01/13 12:59:11;;;;;;;46.40;36.40;;;;;;;3.00;79.46;101769.42;110276;1260;22092;-82
2022/01/13 13:01:46;;;;;;;50.90;35.10;;;;;;;3.00;79.41;101774.13;110477;1257;22095;-82
2022/01/13 13:04:46;;;;;;;45.00;35.70;;;;;;;3.00;79.42;101770.32;110199;1259;21997;-83
2022/01/13 13:07:24;;;;;;;54.60;36.40;;;;;;;3.01;79.51;101771.82;109357;1270;21990;-83
2022/01/13 13:10:06;;;;;;;45.60;34.00;;;;;;;3.02;79.48;101770.53;109101;1270;22007;-83
2022/01/13 13:13:05;;;;;;;41.00;31.90;;;;;;;3.06;79.55;101774.52;109208;1270;22743;-81
2022/01/13 13:16:03;;;;;;;45.70;34.20;;;;;;;3.10;79.60;101775.16;109815;1264;21983;-82
2022/01/13 13:18:41;;;;;;;41.70;32.90;;;;;;;3.10;79.54;101776.37;109654;1263;23069;-82
2022/01/13 13:21:21;;;;;;;39.70;30.20;;;;;;;3.12;79.52;101780.95;109632;1264;23650;-84
2022/01/13 13:57:25;;;;;;;46.60;35.80;;;;;;;3.38;79.49;101792.58;110144;1268;22881;-87
2022/01/13 14:00:48;;;;;;;50.20;35.50;;;;;;;3.40;79.40;101796.15;109545;1275;22054;-86
2022/01/13 14:03:47;;;;;;;47.10;36.80;;;;;;;3.43;79.37;101794.38;109418;1274;21992;-87
2022/01/13 14:06:44;;;;;;;45.50;33.70;;;;;;;3.44;79.18;101792.75;109381;1275;22851;-87
2022/01/13 14:09:43;;;;;;;39.30;31.90;;;;;;;3.44;79.13;101789.64;109496;1275;22006;-86
2022/01/13 14:12:55;;;;;;;42.10;33.10;;;;;;;3.45;79.19;101785.59;110330;1264;21982;-87
2022/01/13 14:27:23;;;;;;;45.50;34.50;;;;;;;3.46;79.10;101777.50;111064;1257;21981;-86
2022/01/13 14:38:23;;;;;;;39.60;31.80;;;;;;;3.49;79.18;101770.89;111511;1254;22081;-89
2022/01/13 14:46:26;;;;;;;;;;;;;;;;;;;;;
2022/01/13 14:49:51;;;;;;;44.60;33.80;;;;;;;3.48;79.11;101775.66;110624;1263;22032;-88
2022/01/13 15:37:53;;;;;;;;;;;;;;;;;;;;;
2022/01/13 15:45:48;;;;;;;;;;;;;;;;;;;;;
2022/01/13 15:49:08;;;;;;;;;;;;;;;;;;;;;
2022/01/13 16:18:02;;;;;;;45.70;33.40;;;;;;;3.75;78.30;101778.80;110746;1255;22269;-86
2022/01/13 16:27:57;;;;;;;;;;;;;;;;;;;;;
2022/01/13 16:34:31;;;;;;;47.30;33.20;;;;;;;3.75;78.02;101769.04;110490;1267;22641;-91
2022/01/13 16:42:11;;;;;;;45.90;33.50;;;;;;;3.76;78.01;101771.42;110775;1266;22020;-88
2022/01/13 16:45:49;;;;;;;39.50;30.10;;;;;;;3.74;78.05;101768.02;110025;1267;21974;-84
2022/01/13 16:49:40;;;;;;;47.50;32.70;;;;;;;3.78;78.18;101770.09;109380;1273;22002;-86
2022/01/13 16:52:21;;;;;;;50.80;33.20;;;;;;;3.81;78.28;101772.18;109869;1267;22332;-85
2022/01/13 16:55:17;;;;;;;45.30;32.50;;;;;;;3.85;78.28;101774.57;109794;1266;23580;-83
2022/01/13 16:57:54;;;;;;;42.10;29.90;;;;;;;3.89;78.30;101775.73;109825;1267;22309;-86
2022/01/13 17:00:27;;;;;;;50.50;36.30;;;;;;;3.91;78.17;101770.36;109588;1267;22098;-84
2022/01/13 17:07:25;;;;;;;42.10;31.10;;;;;;;3.85;77.82;101772.13;110361;1267;22054;-85
2022/01/13 17:15:02;;;;;;;;;;;;;;;;;;;;;
2022/01/13 17:21:46;;;;;;;46.40;30.20;;;;;;;3.65;78.10;101763.88;110516;1265;21988;-83
2022/01/13 17:24:16;;;;;;;43.60;31.50;;;;;;;3.66;78.25;101765.21;109260;1273;23093;-84